sensor_id;sensor_type;location;lat;lon;timestamp;pressure;altitude;pressure_sealevel;temperature;humidity
73105;BME280;61296;50.526;30.792;2022-08-21T00:01:47;99174.44;;;17.25;86.74
73105;BME280;61296;50.526;30.792;2022-08-21T00:17:06;99276.72;;;17.73;86.95
73105;BME280;61296;50.526;30.792;2022-08-21T00:32:27;99292.16;;;17.35;88.80
73105;BME280;61296;50.526;30.792;2022-08-21T00:47:47;99290.22;;;17.12;89.43
73105;BME280;61296;50.526;30.792;2022-08-21T01:03:11;99210.09;;;16.87;88.15
73105;BME280;61296;50.526;30.792;2022-08-21T01:18:31;99194.16;;;16.91;87.16
73105;BME280;61296;50.526;30.792;2022-08-21T01:33:51;99204.34;;;16.97;86.11
73105;BME280;61296;50.526;30.792;2022-08-21T01:49:11;99257.81;;;17.45;85.38
73105;BME280;61296;50.526;30.792;2022-08-21T02:04:30;99210.59;;;16.58;87.64
73105;BME280;61296;50.526;30.792;2022-08-21T02:19:50;99229.31;;;16.78;87.68
73105;BME280;61296;50.526;30.792;2022-08-21T02:35:10;99246.72;;;16.82;86.88
73105;BME280;61296;50.526;30.792;2022-08-21T02:50:33;99184.53;;;16.52;85.90
73105;BME280;61296;50.526;30.792;2022-08-21T03:05:53;99273.13;;;17.13;85.01
73105;BME280;61296;50.526;30.792;2022-08-21T03:21:12;99199.78;;;16.64;83.71
73105;BME280;61296;50.526;30.792;2022-08-21T03:36:32;99170.78;;;15.98;84.75
73105;BME280;61296;50.526;30.792;2022-08-21T03:51:51;99277.19;;;16.85;83.57
73105;BME280;61296;50.526;30.792;2022-08-21T04:07:11;99321.59;;;17.52;81.32
73105;BME280;61296;50.526;30.792;2022-08-21T04:22:30;99259.91;;;17.17;80.46
73105;BME280;61296;50.526;30.792;2022-08-21T04:37:50;99318.78;;;17.75;79.38
73105;BME280;61296;50.526;30.792;2022-08-21T04:53:16;99281.59;;;17.46;79.11
73105;BME280;61296;50.526;30.792;2022-08-21T05:08:38;99320.63;;;17.62;79.40
73105;BME280;61296;50.526;30.792;2022-08-21T05:23:59;99249.00;;;17.66;76.86
73105;BME280;61296;50.526;30.792;2022-08-21T05:39:18;99271.75;;;18.33;74.21
73105;BME280;61296;50.526;30.792;2022-08-21T05:54:38;99219.91;;;18.72;71.75
73105;BME280;61296;50.526;30.792;2022-08-21T06:09:57;99325.75;;;19.33;71.10
73105;BME280;61296;50.526;30.792;2022-08-21T06:25:17;99293.09;;;19.34;69.99
73105;BME280;61296;50.526;30.792;2022-08-21T06:40:38;99245.28;;;20.03;68.04
73105;BME280;61296;50.526;30.792;2022-08-21T06:55:58;99256.56;;;21.19;63.26
73105;BME280;61296;50.526;30.792;2022-08-21T07:11:22;99291.56;;;21.89;62.12
73105;BME280;61296;50.526;30.792;2022-08-21T07:26:42;99295.06;;;22.34;59.98
73105;BME280;61296;50.526;30.792;2022-08-21T07:42:01;99194.66;;;21.83;59.76
73105;BME280;61296;50.526;30.792;2022-08-21T07:57:22;99227.66;;;22.28;59.54
73105;BME280;61296;50.526;30.792;2022-08-21T08:12:42;99219.00;;;22.54;57.97
73105;BME280;61296;50.526;30.792;2022-08-21T08:28:02;99267.03;;;23.01;56.92
73105;BME280;61296;50.526;30.792;2022-08-21T08:43:22;99220.31;;;23.17;55.89
73105;BME280;61296;50.526;30.792;2022-08-21T08:58:47;99270.63;;;23.20;54.21
73105;BME280;61296;50.526;30.792;2022-08-21T09:30:05;99233.06;;;23.36;54.74
73105;BME280;61296;50.526;30.792;2022-08-21T09:45:26;99227.91;;;23.62;51.83
73105;BME280;61296;50.526;30.792;2022-08-21T10:00:56;99246.44;;;23.78;51.75
73105;BME280;61296;50.526;30.792;2022-08-21T10:16:28;99171.97;;;23.31;51.27
73105;BME280;61296;50.526;30.792;2022-08-21T10:47:40;99179.94;;;24.17;50.26
73105;BME280;61296;50.526;30.792;2022-08-21T11:03:02;99230.88;;;24.91;49.33
73105;BME280;61296;50.526;30.792;2022-08-21T12:05:06;99173.59;;;25.03;47.46
73105;BME280;61296;50.526;30.792;2022-08-21T12:21:05;99208.84;;;25.43;46.75
73105;BME280;61296;50.526;30.792;2022-08-21T12:36:29;99194.78;;;25.57;47.96
73105;BME280;61296;50.526;30.792;2022-08-21T13:07:38;99184.56;;;25.60;46.73
73105;BME280;61296;50.526;30.792;2022-08-21T13:23:07;99202.63;;;25.68;47.29
73105;BME280;61296;50.526;30.792;2022-08-21T13:38:36;99160.03;;;25.46;45.95
73105;BME280;61296;50.526;30.792;2022-08-21T13:53:58;99170.59;;;25.66;46.07
73105;BME280;61296;50.526;30.792;2022-08-21T14:09:31;99213.13;;;25.97;45.96
73105;BME280;61296;50.526;30.792;2022-08-21T14:24:59;99214.69;;;25.98;45.53
73105;BME280;61296;50.526;30.792;2022-08-21T14:40:20;99203.34;;;25.78;46.87
73105;BME280;61296;50.526;30.792;2022-08-21T14:55:40;99212.84;;;25.66;48.73
73105;BME280;61296;50.526;30.792;2022-08-21T15:11:20;99182.66;;;25.37;49.00
73105;BME280;61296;50.526;30.792;2022-08-21T15:26:42;99162.63;;;25.05;49.73
73105;BME280;61296;50.526;30.792;2022-08-21T15:42:02;99202.22;;;25.16;49.73
73105;BME280;61296;50.526;30.792;2022-08-21T15:57:23;99230.38;;;25.16;51.09
73105;BME280;61296;50.526;30.792;2022-08-21T16:12:51;99224.00;;;24.92;52.61
73105;BME280;61296;50.526;30.792;2022-08-21T16:28:16;99141.13;;;24.06;54.62
73105;BME280;61296;50.526;30.792;2022-08-21T16:43:38;99211.75;;;24.23;55.19
73105;BME280;61296;50.526;30.792;2022-08-21T16:58:58;99234.16;;;24.08;56.87
73105;BME280;61296;50.526;30.792;2022-08-21T17:14:19;99231.31;;;23.57;58.71
73105;BME280;61296;50.526;30.792;2022-08-21T17:29:39;99262.84;;;23.33;59.71
73105;BME280;61296;50.526;30.792;2022-08-21T17:44:59;99183.34;;;22.45;61.66
73105;BME280;61296;50.526;30.792;2022-08-21T18:00:20;99240.16;;;22.45;62.87
73105;BME280;61296;50.526;30.792;2022-08-21T18:15:45;99253.28;;;22.17;65.11
73105;BME280;61296;50.526;30.792;2022-08-21T18:31:08;99238.59;;;21.73;66.82
73105;BME280;61296;50.526;30.792;2022-08-21T18:46:27;99257.28;;;21.76;67.65
73105;BME280;61296;50.526;30.792;2022-08-21T19:01:47;99194.19;;;21.10;68.89
73105;BME280;61296;50.526;30.792;2022-08-21T19:17:08;99253.41;;;21.30;69.95
73105;BME280;61296;50.526;30.792;2022-08-21T19:32:27;99153.78;;;20.32;71.08
73105;BME280;61296;50.526;30.792;2022-08-21T19:47:50;99259.81;;;20.83;72.23
73105;BME280;61296;50.526;30.792;2022-08-21T20:03:09;99167.00;;;19.94;73.54
73105;BME280;61296;50.526;30.792;2022-08-21T20:18:30;99260.22;;;20.34;74.49
73105;BME280;61296;50.526;30.792;2022-08-21T20:33:51;99251.31;;;20.14;75.41
73105;BME280;61296;50.526;30.792;2022-08-21T20:49:16;99186.88;;;19.70;75.54
73105;BME280;61296;50.526;30.792;2022-08-21T21:04:49;99236.00;;;19.93;75.59
73105;BME280;61296;50.526;30.792;2022-08-21T21:20:21;99242.25;;;19.84;76.01
73105;BME280;61296;50.526;30.792;2022-08-21T21:35:50;99248.00;;;19.65;76.97
73105;BME280;61296;50.526;30.792;2022-08-21T22:07:08;99262.19;;;19.28;78.88
73105;BME280;61296;50.526;30.792;2022-08-21T22:22:31;99181.09;;;18.65;79.52
73105;BME280;61296;50.526;30.792;2022-08-21T22:37:57;99174.84;;;18.44;80.55
73105;BME280;61296;50.526;30.792;2022-08-21T22:53:23;99227.91;;;18.70;80.73
73105;BME280;61296;50.526;30.792;2022-08-21T23:08:44;99223.75;;;18.45;81.13
73105;BME280;61296;50.526;30.792;2022-08-21T23:55:29;99223.66;;;18.16;80.47
